sensor_id;sensor_type;location;lat;lon;timestamp;pressure;altitude;pressure_sealevel;temperature;humidity
74631;BME280;63138;55.082;38.804;2023-06-14T00:01:08;100257.59;;;12.60;67.06
74631;BME280;63138;55.082;38.804;2023-06-14T00:03:35;100255.53;;;12.62;67.12
74631;BME280;63138;55.082;38.804;2023-06-14T00:06:01;100250.06;;;12.62;67.70
74631;BME280;63138;55.082;38.804;2023-06-14T00:08:27;100251.84;;;12.55;68.59
74631;BME280;63138;55.082;38.804;2023-06-14T00:10:53;100263.44;;;12.49;69.49
74631;BME280;63138;55.082;38.804;2023-06-14T00:13:19;100258.72;;;12.43;69.91
74631;BME280;63138;55.082;38.804;2023-06-14T00:15:46;100254.69;;;12.39;69.80
74631;BME280;63138;55.082;38.804;2023-06-14T00:18:13;100256.66;;;12.45;69.44
74631;BME280;63138;55.082;38.804;2023-06-14T00:20:40;100252.53;;;12.49;69.09
74631;BME280;63138;55.082;38.804;2023-06-14T00:23:08;100245.25;;;12.50;67.67
74631;BME280;63138;55.082;38.804;2023-06-14T00:25:34;100253.19;;;12.51;67.56
74631;BME280;63138;55.082;38.804;2023-06-14T00:28:01;100248.50;;;12.45;68.20
74631;BME280;63138;55.082;38.804;2023-06-14T00:30:26;100250.13;;;12.31;68.32
74631;BME280;63138;55.082;38.804;2023-06-14T00:32:58;100249.94;;;12.33;67.86
74631;BME280;63138;55.082;38.804;2023-06-14T00:35:25;100254.53;;;12.32;68.27
74631;BME280;63138;55.082;38.804;2023-06-14T00:37:51;100249.13;;;12.24;68.38
74631;BME280;63138;55.082;38.804;2023-06-14T00:40:17;100253.09;;;12.21;68.89
74631;BME280;63138;55.082;38.804;2023-06-14T00:42:45;100257.38;;;12.16;69.20
74631;BME280;63138;55.082;38.804;2023-06-14T00:45:12;100252.47;;;12.11;68.74
74631;BME280;63138;55.082;38.804;2023-06-14T00:47:41;100261.78;;;12.17;68.30
74631;BME280;63138;55.082;38.804;2023-06-14T00:50:09;100245.44;;;12.17;67.40
74631;BME280;63138;55.082;38.804;2023-06-14T00:52:37;100249.81;;;12.26;66.41
74631;BME280;63138;55.082;38.804;2023-06-14T00:55:04;100259.38;;;12.22;67.54
74631;BME280;63138;55.082;38.804;2023-06-14T00:57:32;100255.19;;;12.11;68.41
74631;BME280;63138;55.082;38.804;2023-06-14T00:59:58;100257.28;;;12.01;69.02
74631;BME280;63138;55.082;38.804;2023-06-14T01:02:24;100264.75;;;11.99;68.95
74631;BME280;63138;55.082;38.804;2023-06-14T01:04:51;100251.81;;;12.01;68.77
74631;BME280;63138;55.082;38.804;2023-06-14T01:07:54;100264.41;;;12.02;68.68
74631;BME280;63138;55.082;38.804;2023-06-14T01:10:37;100262.03;;;11.99;68.84
74631;BME280;63138;55.082;38.804;2023-06-14T01:13:19;100265.50;;;11.93;69.61
74631;BME280;63138;55.082;38.804;2023-06-14T01:15:49;100261.59;;;11.87;69.57
74631;BME280;63138;55.082;38.804;2023-06-14T01:18:17;100252.75;;;11.85;69.26
74631;BME280;63138;55.082;38.804;2023-06-14T01:20:46;100267.88;;;11.88;69.02
74631;BME280;63138;55.082;38.804;2023-06-14T01:23:20;100260.25;;;11.83;69.69
74631;BME280;63138;55.082;38.804;2023-06-14T01:25:47;100255.84;;;11.74;70.26
74631;BME280;63138;55.082;38.804;2023-06-14T01:28:20;100254.66;;;11.76;70.21
74631;BME280;63138;55.082;38.804;2023-06-14T01:30:48;100262.47;;;11.79;70.01
74631;BME280;63138;55.082;38.804;2023-06-14T01:33:19;100262.81;;;11.76;70.50
74631;BME280;63138;55.082;38.804;2023-06-14T01:35:48;100260.09;;;11.76;70.54
74631;BME280;63138;55.082;38.804;2023-06-14T01:38:15;100262.16;;;11.74;70.49
74631;BME280;63138;55.082;38.804;2023-06-14T01:40:44;100258.03;;;11.78;70.36
74631;BME280;63138;55.082;38.804;2023-06-14T01:43:13;100250.38;;;11.82;69.41
74631;BME280;63138;55.082;38.804;2023-06-14T01:45:44;100251.53;;;11.88;69.02
74631;BME280;63138;55.082;38.804;2023-06-14T01:48:11;100249.66;;;11.88;69.40
74631;BME280;63138;55.082;38.804;2023-06-14T01:50:39;100250.00;;;11.93;69.43
74631;BME280;63138;55.082;38.804;2023-06-14T01:53:09;100244.22;;;11.88;70.10
74631;BME280;63138;55.082;38.804;2023-06-14T01:55:37;100249.47;;;11.90;69.94
74631;BME280;63138;55.082;38.804;2023-06-14T01:58:06;100247.47;;;11.92;69.85
74631;BME280;63138;55.082;38.804;2023-06-14T02:00:33;100250.56;;;12.12;69.42
74631;BME280;63138;55.082;38.804;2023-06-14T02:02:59;100252.66;;;12.56;67.63
74631;BME280;63138;55.082;38.804;2023-06-14T02:05:26;100256.13;;;12.50;67.27
74631;BME280;63138;55.082;38.804;2023-06-14T02:07:54;100249.72;;;12.42;67.37
74631;BME280;63138;55.082;38.804;2023-06-14T02:10:21;100253.47;;;12.41;67.53
74631;BME280;63138;55.082;38.804;2023-06-14T02:12:48;100240.03;;;12.40;67.25
74631;BME280;63138;55.082;38.804;2023-06-14T02:15:17;100247.41;;;12.54;67.42
74631;BME280;63138;55.082;38.804;2023-06-14T02:17:47;100249.38;;;12.84;65.32
74631;BME280;63138;55.082;38.804;2023-06-14T02:20:17;100247.72;;;12.97;64.92
74631;BME280;63138;55.082;38.804;2023-06-14T02:22:44;100251.69;;;13.10;64.30
74631;BME280;63138;55.082;38.804;2023-06-14T02:25:10;100254.06;;;13.28;63.23
74631;BME280;63138;55.082;38.804;2023-06-14T02:27:36;100254.53;;;13.16;63.98
74631;BME280;63138;55.082;38.804;2023-06-14T02:30:04;100265.31;;;13.10;64.24
74631;BME280;63138;55.082;38.804;2023-06-14T02:32:34;100260.03;;;13.08;64.63
74631;BME280;63138;55.082;38.804;2023-06-14T02:35:02;100264.66;;;13.08;64.44
74631;BME280;63138;55.082;38.804;2023-06-14T02:37:32;100260.72;;;13.25;64.56
74631;BME280;63138;55.082;38.804;2023-06-14T02:39:58;100265.75;;;13.36;63.89
74631;BME280;63138;55.082;38.804;2023-06-14T02:42:25;100258.78;;;13.34;63.62
74631;BME280;63138;55.082;38.804;2023-06-14T02:44:51;100266.22;;;13.40;63.67
74631;BME280;63138;55.082;38.804;2023-06-14T02:47:18;100270.75;;;13.48;63.15
74631;BME280;63138;55.082;38.804;2023-06-14T02:49:45;100264.75;;;13.52;63.57
74631;BME280;63138;55.082;38.804;2023-06-14T02:52:15;100256.81;;;13.72;62.16
74631;BME280;63138;55.082;38.804;2023-06-14T02:54:41;100261.22;;;13.88;61.86
74631;BME280;63138;55.082;38.804;2023-06-14T02:57:08;100264.59;;;14.63;59.93
74631;BME280;63138;55.082;38.804;2023-06-14T02:59:35;100269.56;;;15.66;56.68
74631;BME280;63138;55.082;38.804;2023-06-14T03:02:02;100261.00;;;16.24;54.88
74631;BME280;63138;55.082;38.804;2023-06-14T03:04:30;100254.56;;;16.72;53.38
74631;BME280;63138;55.082;38.804;2023-06-14T03:07:02;100252.72;;;16.99;52.14
74631;BME280;63138;55.082;38.804;2023-06-14T03:09:28;100260.28;;;17.30;51.42
74631;BME280;63138;55.082;38.804;2023-06-14T03:11:55;100253.84;;;17.70;50.41
74631;BME280;63138;55.082;38.804;2023-06-14T03:14:22;100257.09;;;18.19;48.80
74631;BME280;63138;55.082;38.804;2023-06-14T03:16:48;100249.53;;;18.46;47.70
74631;BME280;63138;55.082;38.804;2023-06-14T03:19:16;100250.19;;;18.73;47.09
74631;BME280;63138;55.082;38.804;2023-06-14T03:21:42;100252.94;;;17.96;49.24
74631;BME280;63138;55.082;38.804;2023-06-14T03:24:10;100248.44;;;17.43;51.26
74631;BME280;63138;55.082;38.804;2023-06-14T03:26:37;100241.09;;;17.17;51.11
74631;BME280;63138;55.082;38.804;2023-06-14T03:29:22;100249.97;;;16.86;52.42
74631;BME280;63138;55.082;38.804;2023-06-14T03:32:01;100249.31;;;16.77;53.44
74631;BME280;63138;55.082;38.804;2023-06-14T03:34:35;100249.09;;;16.78;53.88
74631;BME280;63138;55.082;38.804;2023-06-14T03:37:01;100238.53;;;16.62;54.40
74631;BME280;63138;55.082;38.804;2023-06-14T03:39:29;100249.06;;;16.52;55.16
74631;BME280;63138;55.082;38.804;2023-06-14T03:41:55;100229.03;;;16.44;55.42
74631;BME280;63138;55.082;38.804;2023-06-14T03:44:21;100228.19;;;16.51;54.60
74631;BME280;63138;55.082;38.804;2023-06-14T03:46:47;100232.63;;;16.58;54.89
74631;BME280;63138;55.082;38.804;2023-06-14T03:49:14;100229.03;;;16.58;54.94
74631;BME280;63138;55.082;38.804;2023-06-14T03:51:43;100229.47;;;16.68;54.80
74631;BME280;63138;55.082;38.804;2023-06-14T03:54:09;100229.25;;;16.63;55.03
74631;BME280;63138;55.082;38.804;2023-06-14T03:56:36;100230.50;;;16.67;55.92
74631;BME280;63138;55.082;38.804;2023-06-14T03:59:03;100234.94;;;16.68;55.17
74631;BME280;63138;55.082;38.804;2023-06-14T04:01:31;100227.56;;;16.69;54.37
74631;BME280;63138;55.082;38.804;2023-06-14T04:04:19;100240.25;;;16.90;54.47
74631;BME280;63138;55.082;38.804;2023-06-14T04:06:46;100231.81;;;16.85;54.35
74631;BME280;63138;55.082;38.804;2023-06-14T04:09:15;100233.28;;;16.94;54.31
74631;BME280;63138;55.082;38.804;2023-06-14T04:11:41;100226.97;;;17.13;54.29
74631;BME280;63138;55.082;38.804;2023-06-14T04:14:07;100225.53;;;17.76;49.77
74631;BME280;63138;55.082;38.804;2023-06-14T04:16:34;100229.28;;;18.65;46.30
74631;BME280;63138;55.082;38.804;2023-06-14T04:19:00;100229.75;;;19.38;44.50
74631;BME280;63138;55.082;38.804;2023-06-14T04:21:27;100228.78;;;19.88;42.52
74631;BME280;63138;55.082;38.804;2023-06-14T04:23:56;100218.66;;;20.30;41.06
74631;BME280;63138;55.082;38.804;2023-06-14T04:26:25;100234.81;;;20.99;40.07
74631;BME280;63138;55.082;38.804;2023-06-14T04:28:57;100225.19;;;21.37;39.40
74631;BME280;63138;55.082;38.804;2023-06-14T04:31:29;100228.13;;;21.54;38.60
74631;BME280;63138;55.082;38.804;2023-06-14T04:34:18;100220.78;;;22.58;36.61
74631;BME280;63138;55.082;38.804;2023-06-14T04:36:51;100234.75;;;22.80;35.82
74631;BME280;63138;55.082;38.804;2023-06-14T04:39:37;100226.84;;;22.88;35.27
74631;BME280;63138;55.082;38.804;2023-06-14T04:42:03;100228.22;;;22.86;35.05
74631;BME280;63138;55.082;38.804;2023-06-14T04:44:31;100216.78;;;22.99;34.84
74631;BME280;63138;55.082;38.804;2023-06-14T04:46:59;100226.41;;;23.70;33.55
74631;BME280;63138;55.082;38.804;2023-06-14T04:49:25;100219.88;;;23.76;33.06
74631;BME280;63138;55.082;38.804;2023-06-14T04:51:53;100219.88;;;23.76;32.87
74631;BME280;63138;55.082;38.804;2023-06-14T04:54:33;100210.03;;;23.46;33.21
74631;BME280;63138;55.082;38.804;2023-06-14T04:57:06;100218.34;;;23.46;33.50
74631;BME280;63138;55.082;38.804;2023-06-14T04:59:32;100217.28;;;23.69;33.01
74631;BME280;63138;55.082;38.804;2023-06-14T05:02:01;100206.69;;;23.83;33.22
74631;BME280;63138;55.082;38.804;2023-06-14T05:04:30;100209.19;;;24.34;32.53
74631;BME280;63138;55.082;38.804;2023-06-14T05:06:57;100204.78;;;24.38;31.77
74631;BME280;63138;55.082;38.804;2023-06-14T05:09:24;100216.81;;;24.49;31.40
74631;BME280;63138;55.082;38.804;2023-06-14T05:11:50;100220.53;;;24.32;32.10
74631;BME280;63138;55.082;38.804;2023-06-14T05:14:16;100221.69;;;24.58;31.77
74631;BME280;63138;55.082;38.804;2023-06-14T05:17:17;100220.78;;;25.17;30.58
74631;BME280;63138;55.082;38.804;2023-06-14T05:19:43;100222.22;;;25.68;29.70
74631;BME280;63138;55.082;38.804;2023-06-14T05:22:31;100227.19;;;25.61;29.46
74631;BME280;63138;55.082;38.804;2023-06-14T05:24:57;100222.03;;;25.85;29.35
74631;BME280;63138;55.082;38.804;2023-06-14T05:27:23;100236.06;;;25.58;28.87
74631;BME280;63138;55.082;38.804;2023-06-14T05:29:50;100221.38;;;26.25;28.65
74631;BME280;63138;55.082;38.804;2023-06-14T05:35:21;100218.59;;;26.41;28.53
74631;BME280;63138;55.082;38.804;2023-06-14T05:37:49;100219.19;;;26.53;28.02
74631;BME280;63138;55.082;38.804;2023-06-14T05:40:14;100216.63;;;26.26;28.19
74631;BME280;63138;55.082;38.804;2023-06-14T05:42:44;100218.34;;;26.47;28.07
74631;BME280;63138;55.082;38.804;2023-06-14T05:45:10;100216.34;;;26.22;27.98
74631;BME280;63138;55.082;38.804;2023-06-14T05:47:35;100218.66;;;26.61;27.91
74631;BME280;63138;55.082;38.804;2023-06-14T05:50:01;100219.22;;;26.68;28.13
74631;BME280;63138;55.082;38.804;2023-06-14T05:52:29;100213.06;;;27.33;26.49
74631;BME280;63138;55.082;38.804;2023-06-14T05:54:55;100202.81;;;27.03;26.67
74631;BME280;63138;55.082;38.804;2023-06-14T05:57:21;100206.94;;;26.59;26.23
74631;BME280;63138;55.082;38.804;2023-06-14T05:59:47;100208.00;;;26.38;26.39
74631;BME280;63138;55.082;38.804;2023-06-14T06:02:13;100207.72;;;26.24;26.04
74631;BME280;63138;55.082;38.804;2023-06-14T06:04:39;100217.31;;;25.90;27.08
74631;BME280;63138;55.082;38.804;2023-06-14T06:07:06;100208.47;;;25.93;26.57
74631;BME280;63138;55.082;38.804;2023-06-14T06:09:32;100210.38;;;25.88;26.95
74631;BME280;63138;55.082;38.804;2023-06-14T06:11:59;100213.44;;;25.91;26.97
74631;BME280;63138;55.082;38.804;2023-06-14T06:14:25;100229.13;;;26.23;26.46
74631;BME280;63138;55.082;38.804;2023-06-14T06:16:51;100224.97;;;26.26;27.05
74631;BME280;63138;55.082;38.804;2023-06-14T06:19:18;100211.69;;;25.70;25.82
74631;BME280;63138;55.082;38.804;2023-06-14T06:21:44;100195.13;;;25.05;25.95
74631;BME280;63138;55.082;38.804;2023-06-14T06:24:10;100227.56;;;24.94;26.56
74631;BME280;63138;55.082;38.804;2023-06-14T06:26:36;100211.19;;;24.66;26.83
74631;BME280;63138;55.082;38.804;2023-06-14T06:29:02;100211.59;;;24.52;26.68
74631;BME280;63138;55.082;38.804;2023-06-14T06:31:28;100187.56;;;24.58;27.29
74631;BME280;63138;55.082;38.804;2023-06-14T06:33:56;100188.63;;;24.02;27.21
74631;BME280;63138;55.082;38.804;2023-06-14T06:36:21;100210.31;;;24.11;27.63
74631;BME280;63138;55.082;38.804;2023-06-14T06:38:48;100190.13;;;23.88;27.97
74631;BME280;63138;55.082;38.804;2023-06-14T06:41:15;100183.13;;;24.08;28.11
74631;BME280;63138;55.082;38.804;2023-06-14T06:43:41;100203.81;;;23.78;27.98
74631;BME280;63138;55.082;38.804;2023-06-14T06:46:08;100193.97;;;23.87;27.73
74631;BME280;63138;55.082;38.804;2023-06-14T06:48:35;100196.72;;;23.65;28.20
74631;BME280;63138;55.082;38.804;2023-06-14T06:51:01;100195.88;;;24.09;27.60
74631;BME280;63138;55.082;38.804;2023-06-14T06:53:27;100194.44;;;24.28;27.45
74631;BME280;63138;55.082;38.804;2023-06-14T06:55:53;100217.78;;;24.32;26.89
74631;BME280;63138;55.082;38.804;2023-06-14T06:58:19;100217.50;;;24.07;27.24
74631;BME280;63138;55.082;38.804;2023-06-14T07:00:48;100213.66;;;24.13;27.65
74631;BME280;63138;55.082;38.804;2023-06-14T07:03:14;100218.47;;;23.95;28.19
74631;BME280;63138;55.082;38.804;2023-06-14T07:05:40;100190.72;;;24.17;27.49
74631;BME280;63138;55.082;38.804;2023-06-14T07:08:06;100223.44;;;24.42;27.54
74631;BME280;63138;55.082;38.804;2023-06-14T07:10:32;100198.09;;;24.61;26.62
74631;BME280;63138;55.082;38.804;2023-06-14T07:12:58;100208.69;;;24.64;26.96
74631;BME280;63138;55.082;38.804;2023-06-14T07:15:24;100214.38;;;24.79;27.01
74631;BME280;63138;55.082;38.804;2023-06-14T07:17:51;100186.47;;;24.64;26.49
74631;BME280;63138;55.082;38.804;2023-06-14T07:20:18;100208.47;;;24.43;26.75
74631;BME280;63138;55.082;38.804;2023-06-14T07:22:44;100187.00;;;24.07;27.45
74631;BME280;63138;55.082;38.804;2023-06-14T07:25:11;100201.53;;;23.92;27.40
74631;BME280;63138;55.082;38.804;2023-06-14T07:27:43;100182.13;;;23.75;27.57
74631;BME280;63138;55.082;38.804;2023-06-14T07:30:10;100191.66;;;24.01;27.14
74631;BME280;63138;55.082;38.804;2023-06-14T07:32:36;100196.31;;;24.22;27.10
74631;BME280;63138;55.082;38.804;2023-06-14T07:35:02;100206.72;;;24.10;27.46
74631;BME280;63138;55.082;38.804;2023-06-14T07:37:29;100201.56;;;24.19;27.04
74631;BME280;63138;55.082;38.804;2023-06-14T07:39:56;100208.13;;;24.13;28.12
74631;BME280;63138;55.082;38.804;2023-06-14T07:42:41;100211.59;;;24.25;27.64
74631;BME280;63138;55.082;38.804;2023-06-14T07:45:07;100196.94;;;24.30;27.45
74631;BME280;63138;55.082;38.804;2023-06-14T07:47:33;100171.28;;;24.45;26.89
74631;BME280;63138;55.082;38.804;2023-06-14T07:49:59;100193.72;;;24.65;26.76
74631;BME280;63138;55.082;38.804;2023-06-14T07:52:45;100183.91;;;24.03;27.48
74631;BME280;63138;55.082;38.804;2023-06-14T07:55:10;100199.34;;;24.48;27.37
74631;BME280;63138;55.082;38.804;2023-06-14T07:57:37;100195.63;;;24.97;26.25
74631;BME280;63138;55.082;38.804;2023-06-14T08:00:04;100189.38;;;25.17;26.11
74631;BME280;63138;55.082;38.804;2023-06-14T08:02:38;100194.84;;;25.39;26.16
74631;BME280;63138;55.082;38.804;2023-06-14T08:05:04;100197.41;;;24.76;26.70
74631;BME280;63138;55.082;38.804;2023-06-14T08:07:30;100177.59;;;24.62;26.62
74631;BME280;63138;55.082;38.804;2023-06-14T08:09:56;100193.44;;;24.39;27.44
74631;BME280;63138;55.082;38.804;2023-06-14T08:12:22;100183.00;;;24.52;27.06
74631;BME280;63138;55.082;38.804;2023-06-14T08:14:48;100183.59;;;24.54;26.55
74631;BME280;63138;55.082;38.804;2023-06-14T08:17:14;100188.06;;;24.55;27.45
74631;BME280;63138;55.082;38.804;2023-06-14T08:19:40;100173.25;;;24.76;27.48
74631;BME280;63138;55.082;38.804;2023-06-14T08:22:06;100182.00;;;24.58;27.88
74631;BME280;63138;55.082;38.804;2023-06-14T08:24:32;100175.78;;;24.51;28.29
74631;BME280;63138;55.082;38.804;2023-06-14T08:26:58;100176.00;;;24.71;27.79
74631;BME280;63138;55.082;38.804;2023-06-14T08:29:26;100182.31;;;24.99;27.32
74631;BME280;63138;55.082;38.804;2023-06-14T08:31:55;100182.47;;;24.82;28.21
74631;BME280;63138;55.082;38.804;2023-06-14T08:34:21;100186.81;;;25.05;27.75
74631;BME280;63138;55.082;38.804;2023-06-14T08:36:52;100191.31;;;25.59;27.29
74631;BME280;63138;55.082;38.804;2023-06-14T08:39:18;100180.44;;;25.52;27.87
74631;BME280;63138;55.082;38.804;2023-06-14T08:41:47;100179.38;;;25.64;28.08
74631;BME280;63138;55.082;38.804;2023-06-14T08:44:17;100182.53;;;25.30;28.08
74631;BME280;63138;55.082;38.804;2023-06-14T08:46:44;100182.06;;;24.68;28.61
74631;BME280;63138;55.082;38.804;2023-06-14T08:49:12;100184.84;;;24.68;28.22
74631;BME280;63138;55.082;38.804;2023-06-14T08:51:38;100188.69;;;24.94;28.01
74631;BME280;63138;55.082;38.804;2023-06-14T08:54:06;100186.19;;;25.41;27.93
74631;BME280;63138;55.082;38.804;2023-06-14T08:56:33;100182.00;;;25.33;28.13
74631;BME280;63138;55.082;38.804;2023-06-14T08:59:00;100168.88;;;25.23;28.41
74631;BME280;63138;55.082;38.804;2023-06-14T09:01:37;100183.16;;;25.42;28.21
74631;BME280;63138;55.082;38.804;2023-06-14T09:04:04;100172.06;;;25.47;27.71
74631;BME280;63138;55.082;38.804;2023-06-14T09:06:34;100150.50;;;25.22;28.12
74631;BME280;63138;55.082;38.804;2023-06-14T09:09:00;100153.78;;;25.62;28.34
74631;BME280;63138;55.082;38.804;2023-06-14T09:11:27;100151.78;;;25.47;28.06
74631;BME280;63138;55.082;38.804;2023-06-14T09:13:53;100163.88;;;25.78;27.23
74631;BME280;63138;55.082;38.804;2023-06-14T09:16:19;100158.00;;;25.69;27.16
74631;BME280;63138;55.082;38.804;2023-06-14T09:18:46;100161.47;;;25.34;27.52
74631;BME280;63138;55.082;38.804;2023-06-14T09:21:17;100150.72;;;25.58;27.56
74631;BME280;63138;55.082;38.804;2023-06-14T09:23:45;100141.78;;;25.46;27.18
74631;BME280;63138;55.082;38.804;2023-06-14T09:26:16;100143.78;;;25.66;26.87
74631;BME280;63138;55.082;38.804;2023-06-14T09:28:47;100133.09;;;25.37;27.23
74631;BME280;63138;55.082;38.804;2023-06-14T09:31:14;100159.31;;;25.46;27.40
74631;BME280;63138;55.082;38.804;2023-06-14T09:33:48;100133.91;;;24.90;27.65
74631;BME280;63138;55.082;38.804;2023-06-14T09:36:21;100149.00;;;25.04;27.26
74631;BME280;63138;55.082;38.804;2023-06-14T09:38:56;100146.56;;;25.55;26.75
74631;BME280;63138;55.082;38.804;2023-06-14T09:41:50;100144.34;;;25.58;26.36
74631;BME280;63138;55.082;38.804;2023-06-14T09:44:16;100134.56;;;25.02;26.81
74631;BME280;63138;55.082;38.804;2023-06-14T09:46:44;100123.41;;;24.54;27.95
74631;BME280;63138;55.082;38.804;2023-06-14T09:49:13;100134.75;;;24.53;27.48
74631;BME280;63138;55.082;38.804;2023-06-14T09:51:43;100129.25;;;24.58;27.61
74631;BME280;63138;55.082;38.804;2023-06-14T09:54:16;100112.91;;;24.34;27.63
74631;BME280;63138;55.082;38.804;2023-06-14T09:57:16;100106.88;;;23.83;28.34
74631;BME280;63138;55.082;38.804;2023-06-14T09:59:45;100128.41;;;24.30;28.19
74631;BME280;63138;55.082;38.804;2023-06-14T10:02:28;100116.56;;;24.08;28.17
74631;BME280;63138;55.082;38.804;2023-06-14T10:05:01;100114.75;;;24.23;28.28
74631;BME280;63138;55.082;38.804;2023-06-14T10:10:19;100116.09;;;23.66;29.29
74631;BME280;63138;55.082;38.804;2023-06-14T10:12:45;100099.41;;;23.61;29.42
74631;BME280;63138;55.082;38.804;2023-06-14T10:15:19;100107.59;;;23.29;29.67
74631;BME280;63138;55.082;38.804;2023-06-14T10:17:50;100108.75;;;23.55;29.45
74631;BME280;63138;55.082;38.804;2023-06-14T10:23:21;100102.28;;;23.72;29.46
74631;BME280;63138;55.082;38.804;2023-06-14T10:25:59;100087.03;;;23.96;29.50
74631;BME280;63138;55.082;38.804;2023-06-14T10:28:26;100093.75;;;23.78;29.07
74631;BME280;63138;55.082;38.804;2023-06-14T10:31:11;100102.00;;;23.73;29.49
74631;BME280;63138;55.082;38.804;2023-06-14T10:34:05;100089.28;;;23.50;29.41
74631;BME280;63138;55.082;38.804;2023-06-14T10:36:32;100090.78;;;23.36;29.47
74631;BME280;63138;55.082;38.804;2023-06-14T10:39:16;100061.97;;;23.37;29.56
74631;BME280;63138;55.082;38.804;2023-06-14T10:41:52;100087.66;;;23.54;28.83
74631;BME280;63138;55.082;38.804;2023-06-14T10:46:54;100095.22;;;23.81;28.24
74631;BME280;63138;55.082;38.804;2023-06-14T10:49:39;100101.06;;;23.84;28.04
74631;BME280;63138;55.082;38.804;2023-06-14T10:52:13;100102.66;;;24.02;28.14
74631;BME280;63138;55.082;38.804;2023-06-14T10:55:10;100105.69;;;24.01;28.33
74631;BME280;63138;55.082;38.804;2023-06-14T10:57:39;100104.78;;;23.95;28.92
74631;BME280;63138;55.082;38.804;2023-06-14T11:00:06;100095.53;;;24.12;28.52
74631;BME280;63138;55.082;38.804;2023-06-14T11:10:48;100093.06;;;23.88;29.24
74631;BME280;63138;55.082;38.804;2023-06-14T11:13:16;100077.38;;;23.77;28.42
74631;BME280;63138;55.082;38.804;2023-06-14T11:15:44;100089.75;;;23.91;28.39
74631;BME280;63138;55.082;38.804;2023-06-14T11:18:13;100069.47;;;23.85;28.53
74631;BME280;63138;55.082;38.804;2023-06-14T11:20:39;100073.66;;;23.88;28.04
74631;BME280;63138;55.082;38.804;2023-06-14T11:23:05;100057.47;;;24.07;28.22
74631;BME280;63138;55.082;38.804;2023-06-14T11:25:32;100051.75;;;24.19;28.19
74631;BME280;63138;55.082;38.804;2023-06-14T11:27:58;100059.25;;;23.91;28.67
74631;BME280;63138;55.082;38.804;2023-06-14T11:30:27;100065.41;;;23.98;28.25
74631;BME280;63138;55.082;38.804;2023-06-14T11:33:17;100056.94;;;24.10;28.03
74631;BME280;63138;55.082;38.804;2023-06-14T11:35:44;100059.06;;;24.30;27.58
74631;BME280;63138;55.082;38.804;2023-06-14T11:38:11;100046.63;;;24.38;27.01
74631;BME280;63138;55.082;38.804;2023-06-14T11:40:38;100029.06;;;24.27;27.56
74631;BME280;63138;55.082;38.804;2023-06-14T11:43:04;100046.31;;;24.29;27.58
74631;BME280;63138;55.082;38.804;2023-06-14T11:45:30;100049.88;;;24.24;27.47
74631;BME280;63138;55.082;38.804;2023-06-14T11:47:58;100050.88;;;24.46;27.30
74631;BME280;63138;55.082;38.804;2023-06-14T11:50:25;100058.13;;;24.52;27.04
74631;BME280;63138;55.082;38.804;2023-06-14T11:53:09;100038.19;;;24.55;27.12
74631;BME280;63138;55.082;38.804;2023-06-14T11:55:37;100036.50;;;24.54;27.46
74631;BME280;63138;55.082;38.804;2023-06-14T11:58:04;100044.53;;;24.18;27.42
74631;BME280;63138;55.082;38.804;2023-06-14T12:00:31;100045.31;;;24.46;27.58
74631;BME280;63138;55.082;38.804;2023-06-14T12:02:57;100044.31;;;24.24;27.30
74631;BME280;63138;55.082;38.804;2023-06-14T12:05:25;100045.88;;;24.48;26.77
74631;BME280;63138;55.082;38.804;2023-06-14T12:07:59;100049.69;;;24.41;26.69
74631;BME280;63138;55.082;38.804;2023-06-14T12:10:28;100046.31;;;24.67;26.92
74631;BME280;63138;55.082;38.804;2023-06-14T12:13:00;100030.41;;;24.99;26.37
74631;BME280;63138;55.082;38.804;2023-06-14T12:15:29;100035.34;;;24.50;26.23
74631;BME280;63138;55.082;38.804;2023-06-14T12:17:55;100036.50;;;24.54;26.23
74631;BME280;63138;55.082;38.804;2023-06-14T12:20:21;100035.16;;;24.56;26.11
74631;BME280;63138;55.082;38.804;2023-06-14T12:25:29;100037.84;;;24.89;26.66
74631;BME280;63138;55.082;38.804;2023-06-14T12:28:05;100022.41;;;25.18;26.84
74631;BME280;63138;55.082;38.804;2023-06-14T12:30:33;100020.63;;;24.92;26.26
74631;BME280;63138;55.082;38.804;2023-06-14T12:32:59;100016.38;;;24.74;26.96
74631;BME280;63138;55.082;38.804;2023-06-14T12:35:26;100002.69;;;24.57;26.89
74631;BME280;63138;55.082;38.804;2023-06-14T12:37:52;100016.97;;;24.38;27.61
74631;BME280;63138;55.082;38.804;2023-06-14T12:40:18;100018.81;;;24.60;27.17
74631;BME280;63138;55.082;38.804;2023-06-14T12:43:02;100010.25;;;24.72;26.73
74631;BME280;63138;55.082;38.804;2023-06-14T12:45:47;100017.25;;;24.79;26.64
74631;BME280;63138;55.082;38.804;2023-06-14T12:48:13;99983.84;;;24.64;27.45
74631;BME280;63138;55.082;38.804;2023-06-14T12:50:41;99980.16;;;24.53;27.58
74631;BME280;63138;55.082;38.804;2023-06-14T12:53:07;100006.53;;;24.56;27.53
74631;BME280;63138;55.082;38.804;2023-06-14T12:55:33;100011.09;;;24.72;27.70
74631;BME280;63138;55.082;38.804;2023-06-14T12:57:59;99998.31;;;24.71;27.79
74631;BME280;63138;55.082;38.804;2023-06-14T13:00:25;100000.00;;;24.72;27.34
74631;BME280;63138;55.082;38.804;2023-06-14T13:02:56;100002.00;;;24.87;27.57
74631;BME280;63138;55.082;38.804;2023-06-14T13:05:40;99990.63;;;24.89;27.43
74631;BME280;63138;55.082;38.804;2023-06-14T13:08:07;99998.97;;;24.89;27.36
74631;BME280;63138;55.082;38.804;2023-06-14T13:10:55;99985.59;;;24.80;27.58
74631;BME280;63138;55.082;38.804;2023-06-14T13:13:41;99997.06;;;25.05;27.77